sensor_id;sensor_type;location;lat;lon;timestamp;pressure;altitude;pressure_sealevel;temperature;humidity
10310;BME280;5200;43.236;27.986;2024-01-06T00:02:22;100061.34;;;9.26;100.00
10310;BME280;5200;43.236;27.986;2024-01-06T00:04:50;100044.19;;;9.22;100.00
10310;BME280;5200;43.236;27.986;2024-01-06T00:07:17;100046.50;;;9.16;100.00
10310;BME280;5200;43.236;27.986;2024-01-06T00:09:44;100040.53;;;9.14;100.00
10310;BME280;5200;43.236;27.986;2024-01-06T00:12:10;100047.97;;;9.29;100.00
10310;BME280;5200;43.236;27.986;2024-01-06T00:14:37;100060.00;;;9.32;100.00
10310;BME280;5200;43.236;27.986;2024-01-06T00:17:07;100053.66;;;9.35;100.00
10310;BME280;5200;43.236;27.986;2024-01-06T00:19:34;100056.03;;;9.38;100.00
10310;BME280;5200;43.236;27.986;2024-01-06T00:22:02;100022.22;;;9.23;100.00
10310;BME280;5200;43.236;27.986;2024-01-06T00:24:29;100015.06;;;9.25;100.00
10310;BME280;5200;43.236;27.986;2024-01-06T00:26:56;100043.72;;;9.38;100.00
10310;BME280;5200;43.236;27.986;2024-01-06T00:29:23;100014.78;;;9.28;100.00
10310;BME280;5200;43.236;27.986;2024-01-06T00:31:50;100025.22;;;9.40;100.00
10310;BME280;5200;43.236;27.986;2024-01-06T00:34:17;100013.84;;;9.29;100.00
10310;BME280;5200;43.236;27.986;2024-01-06T00:36:44;100045.28;;;9.41;100.00
10310;BME280;5200;43.236;27.986;2024-01-06T00:39:12;100036.00;;;9.37;100.00
10310;BME280;5200;43.236;27.986;2024-01-06T00:41:39;100015.31;;;9.22;100.00
10310;BME280;5200;43.236;27.986;2024-01-06T00:44:05;100010.19;;;9.21;100.00
10310;BME280;5200;43.236;27.986;2024-01-06T00:46:32;100006.03;;;9.18;100.00
10310;BME280;5200;43.236;27.986;2024-01-06T00:48:59;100005.75;;;9.21;100.00
10310;BME280;5200;43.236;27.986;2024-01-06T00:51:26;99999.63;;;9.11;100.00
10310;BME280;5200;43.236;27.986;2024-01-06T00:53:53;100020.56;;;9.22;100.00
10310;BME280;5200;43.236;27.986;2024-01-06T00:56:22;99990.34;;;9.07;100.00
10310;BME280;5200;43.236;27.986;2024-01-06T00:58:49;99992.03;;;9.08;100.00
10310;BME280;5200;43.236;27.986;2024-01-06T01:01:16;99997.19;;;9.19;100.00
10310;BME280;5200;43.236;27.986;2024-01-06T01:03:42;100000.66;;;9.20;100.00
10310;BME280;5200;43.236;27.986;2024-01-06T01:06:09;99995.41;;;9.20;100.00
10310;BME280;5200;43.236;27.986;2024-01-06T01:08:36;99989.31;;;9.19;100.00
10310;BME280;5200;43.236;27.986;2024-01-06T01:11:03;99971.19;;;9.16;100.00
10310;BME280;5200;43.236;27.986;2024-01-06T01:13:31;99978.50;;;9.34;100.00
10310;BME280;5200;43.236;27.986;2024-01-06T01:15:58;99991.09;;;9.40;100.00
10310;BME280;5200;43.236;27.986;2024-01-06T01:18:25;99984.88;;;9.41;100.00
10310;BME280;5200;43.236;27.986;2024-01-06T01:20:52;99989.59;;;9.47;100.00
10310;BME280;5200;43.236;27.986;2024-01-06T01:23:19;99981.88;;;9.45;100.00
10310;BME280;5200;43.236;27.986;2024-01-06T01:25:45;99986.25;;;9.45;100.00
10310;BME280;5200;43.236;27.986;2024-01-06T01:28:13;99960.22;;;9.32;100.00
10310;BME280;5200;43.236;27.986;2024-01-06T01:30:41;99952.34;;;9.32;100.00
10310;BME280;5200;43.236;27.986;2024-01-06T01:33:07;99960.56;;;9.39;100.00
10310;BME280;5200;43.236;27.986;2024-01-06T01:35:33;99961.25;;;9.41;100.00
10310;BME280;5200;43.236;27.986;2024-01-06T01:38:00;99935.06;;;9.29;100.00
10310;BME280;5200;43.236;27.986;2024-01-06T01:40:28;99950.28;;;9.36;100.00
10310;BME280;5200;43.236;27.986;2024-01-06T01:42:54;99933.34;;;9.19;100.00
10310;BME280;5200;43.236;27.986;2024-01-06T01:45:21;99947.19;;;9.21;100.00
10310;BME280;5200;43.236;27.986;2024-01-06T01:47:50;99925.44;;;9.09;100.00
10310;BME280;5200;43.236;27.986;2024-01-06T01:50:17;99916.16;;;9.05;100.00
10310;BME280;5200;43.236;27.986;2024-01-06T01:52:45;99940.47;;;9.07;100.00
10310;BME280;5200;43.236;27.986;2024-01-06T01:55:13;99931.66;;;9.08;100.00
10310;BME280;5200;43.236;27.986;2024-01-06T01:57:40;99937.13;;;9.05;100.00
10310;BME280;5200;43.236;27.986;2024-01-06T02:00:08;99929.09;;;8.97;100.00
10310;BME280;5200;43.236;27.986;2024-01-06T02:02:35;99911.28;;;8.79;100.00
10310;BME280;5200;43.236;27.986;2024-01-06T02:05:03;99922.13;;;8.86;100.00
10310;BME280;5200;43.236;27.986;2024-01-06T02:07:31;99933.69;;;8.83;100.00
10310;BME280;5200;43.236;27.986;2024-01-06T02:09:58;99915.72;;;8.79;100.00
10310;BME280;5200;43.236;27.986;2024-01-06T02:12:24;99896.59;;;8.67;100.00
10310;BME280;5200;43.236;27.986;2024-01-06T02:14:51;99896.31;;;8.70;100.00
10310;BME280;5200;43.236;27.986;2024-01-06T02:17:18;99895.50;;;8.70;100.00
10310;BME280;5200;43.236;27.986;2024-01-06T02:19:45;99913.53;;;8.84;100.00
10310;BME280;5200;43.236;27.986;2024-01-06T02:22:13;99919.50;;;8.86;100.00
10310;BME280;5200;43.236;27.986;2024-01-06T02:24:40;99895.56;;;8.79;100.00
10310;BME280;5200;43.236;27.986;2024-01-06T02:27:07;99898.38;;;8.87;100.00
10310;BME280;5200;43.236;27.986;2024-01-06T02:29:34;99885.44;;;8.75;100.00
10310;BME280;5200;43.236;27.986;2024-01-06T02:32:00;99877.59;;;8.75;100.00
10310;BME280;5200;43.236;27.986;2024-01-06T02:34:27;99875.09;;;8.73;100.00
10310;BME280;5200;43.236;27.986;2024-01-06T02:36:54;99898.88;;;8.81;100.00
10310;BME280;5200;43.236;27.986;2024-01-06T02:39:22;99907.47;;;8.83;100.00
10310;BME280;5200;43.236;27.986;2024-01-06T02:41:49;99907.72;;;8.80;100.00
10310;BME280;5200;43.236;27.986;2024-01-06T02:44:16;99906.91;;;8.80;100.00
10310;BME280;5200;43.236;27.986;2024-01-06T02:46:43;99899.16;;;8.78;100.00
10310;BME280;5200;43.236;27.986;2024-01-06T02:49:09;99895.72;;;8.78;100.00
10310;BME280;5200;43.236;27.986;2024-01-06T02:51:36;99886.69;;;8.71;100.00
10310;BME280;5200;43.236;27.986;2024-01-06T02:54:03;99884.00;;;8.61;100.00
10310;BME280;5200;43.236;27.986;2024-01-06T02:56:31;99900.91;;;8.68;100.00
10310;BME280;5200;43.236;27.986;2024-01-06T02:58:58;99909.00;;;8.65;100.00
10310;BME280;5200;43.236;27.986;2024-01-06T03:01:25;99906.91;;;8.59;100.00
10310;BME280;5200;43.236;27.986;2024-01-06T03:03:52;99905.47;;;8.55;100.00
10310;BME280;5200;43.236;27.986;2024-01-06T03:06:19;99898.81;;;8.51;100.00
10310;BME280;5200;43.236;27.986;2024-01-06T03:08:45;99895.88;;;8.44;100.00
10310;BME280;5200;43.236;27.986;2024-01-06T03:11:12;99871.16;;;8.25;100.00
10310;BME280;5200;43.236;27.986;2024-01-06T03:13:41;99887.84;;;8.24;100.00
10310;BME280;5200;43.236;27.986;2024-01-06T03:16:08;99885.59;;;8.20;100.00
10310;BME280;5200;43.236;27.986;2024-01-06T03:18:35;99889.28;;;8.17;100.00
10310;BME280;5200;43.236;27.986;2024-01-06T03:21:01;99901.75;;;8.25;100.00
10310;BME280;5200;43.236;27.986;2024-01-06T03:23:29;99863.00;;;8.08;100.00
10310;BME280;5200;43.236;27.986;2024-01-06T03:25:56;99881.81;;;8.13;100.00
10310;BME280;5200;43.236;27.986;2024-01-06T03:28:22;99868.88;;;8.00;100.00
10310;BME280;5200;43.236;27.986;2024-01-06T03:30:50;99881.25;;;8.09;100.00
10310;BME280;5200;43.236;27.986;2024-01-06T03:33:17;99878.50;;;7.99;100.00
10310;BME280;5200;43.236;27.986;2024-01-06T03:35:44;99876.09;;;8.08;100.00
10310;BME280;5200;43.236;27.986;2024-01-06T03:38:11;99859.59;;;7.96;100.00
10310;BME280;5200;43.236;27.986;2024-01-06T03:40:38;99863.75;;;7.98;100.00
10310;BME280;5200;43.236;27.986;2024-01-06T03:43:04;99873.22;;;8.11;100.00
10310;BME280;5200;43.236;27.986;2024-01-06T03:45:31;99875.63;;;8.14;100.00
10310;BME280;5200;43.236;27.986;2024-01-06T03:47:59;99857.66;;;8.09;100.00
10310;BME280;5200;43.236;27.986;2024-01-06T03:50:26;99860.28;;;8.09;100.00
10310;BME280;5200;43.236;27.986;2024-01-06T03:52:53;99861.44;;;8.16;100.00
10310;BME280;5200;43.236;27.986;2024-01-06T03:55:20;99847.53;;;8.04;100.00
10310;BME280;5200;43.236;27.986;2024-01-06T03:57:47;99857.84;;;8.17;100.00
10310;BME280;5200;43.236;27.986;2024-01-06T04:00:14;99836.81;;;8.08;100.00
10310;BME280;5200;43.236;27.986;2024-01-06T04:02:42;99854.03;;;8.21;100.00
10310;BME280;5200;43.236;27.986;2024-01-06T04:05:10;99848.91;;;8.20;100.00
10310;BME280;5200;43.236;27.986;2024-01-06T04:07:37;99855.44;;;8.25;100.00
10310;BME280;5200;43.236;27.986;2024-01-06T04:10:04;99853.81;;;8.34;100.00
10310;BME280;5200;43.236;27.986;2024-01-06T04:12:31;99841.69;;;8.33;100.00
10310;BME280;5200;43.236;27.986;2024-01-06T04:14:58;99855.16;;;8.40;100.00
10310;BME280;5200;43.236;27.986;2024-01-06T04:17:24;99822.91;;;8.28;100.00
10310;BME280;5200;43.236;27.986;2024-01-06T04:19:52;99826.22;;;8.30;100.00
10310;BME280;5200;43.236;27.986;2024-01-06T04:22:20;99850.47;;;8.43;100.00
10310;BME280;5200;43.236;27.986;2024-01-06T04:24:47;99824.28;;;8.32;100.00
10310;BME280;5200;43.236;27.986;2024-01-06T04:27:14;99825.13;;;8.33;100.00
10310;BME280;5200;43.236;27.986;2024-01-06T04:29:40;99843.19;;;8.47;100.00
10310;BME280;5200;43.236;27.986;2024-01-06T04:32:07;99849.97;;;8.50;100.00
10310;BME280;5200;43.236;27.986;2024-01-06T04:34:34;99831.75;;;8.37;100.00
10310;BME280;5200;43.236;27.986;2024-01-06T04:37:01;99823.78;;;8.38;100.00
10310;BME280;5200;43.236;27.986;2024-01-06T04:39:29;99848.28;;;8.49;100.00
10310;BME280;5200;43.236;27.986;2024-01-06T04:41:56;99838.50;;;8.51;100.00
10310;BME280;5200;43.236;27.986;2024-01-06T04:44:23;99840.19;;;8.52;100.00
10310;BME280;5200;43.236;27.986;2024-01-06T04:46:50;99849.97;;;8.50;100.00
10310;BME280;5200;43.236;27.986;2024-01-06T04:49:17;99829.03;;;8.38;100.00
10310;BME280;5200;43.236;27.986;2024-01-06T04:51:44;99857.84;;;8.50;100.00
10310;BME280;5200;43.236;27.986;2024-01-06T04:54:11;99864.28;;;8.45;100.00
10310;BME280;5200;43.236;27.986;2024-01-06T04:56:39;99871.34;;;8.45;100.00
10310;BME280;5200;43.236;27.986;2024-01-06T04:59:06;99872.41;;;8.42;100.00
10310;BME280;5200;43.236;27.986;2024-01-06T05:01:33;99839.56;;;8.27;100.00
10310;BME280;5200;43.236;27.986;2024-01-06T05:04:00;99858.63;;;8.29;100.00
10310;BME280;5200;43.236;27.986;2024-01-06T05:06:26;99862.44;;;8.25;100.00
10310;BME280;5200;43.236;27.986;2024-01-06T05:08:53;99848.78;;;8.21;100.00
10310;BME280;5200;43.236;27.986;2024-01-06T05:11:20;99873.97;;;8.34;100.00
10310;BME280;5200;43.236;27.986;2024-01-06T05:13:48;99859.72;;;8.26;100.00
10310;BME280;5200;43.236;27.986;2024-01-06T05:16:15;99850.06;;;8.27;100.00
10310;BME280;5200;43.236;27.986;2024-01-06T05:18:42;99848.97;;;8.30;100.00
10310;BME280;5200;43.236;27.986;2024-01-06T05:21:08;99847.19;;;8.30;100.00
10310;BME280;5200;43.236;27.986;2024-01-06T05:23:36;99851.34;;;8.33;100.00
10310;BME280;5200;43.236;27.986;2024-01-06T05:26:03;99872.88;;;8.48;100.00
10310;BME280;5200;43.236;27.986;2024-01-06T05:28:31;99847.88;;;8.32;100.00
10310;BME280;5200;43.236;27.986;2024-01-06T05:31:00;99876.69;;;8.43;100.00
10310;BME280;5200;43.236;27.986;2024-01-06T05:33:27;99858.63;;;8.29;100.00
10310;BME280;5200;43.236;27.986;2024-01-06T05:35:53;99873.59;;;8.38;100.00
10310;BME280;5200;43.236;27.986;2024-01-06T05:38:20;99874.56;;;8.37;100.00
10310;BME280;5200;43.236;27.986;2024-01-06T05:40:47;99856.25;;;8.26;100.00
10310;BME280;5200;43.236;27.986;2024-01-06T05:43:14;99881.00;;;8.33;100.00
10310;BME280;5200;43.236;27.986;2024-01-06T05:45:41;99881.28;;;8.30;100.00
10310;BME280;5200;43.236;27.986;2024-01-06T05:48:10;99869.59;;;8.23;100.00
10310;BME280;5200;43.236;27.986;2024-01-06T05:50:37;99865.69;;;8.17;100.00
10310;BME280;5200;43.236;27.986;2024-01-06T05:53:05;99875.31;;;8.28;100.00
10310;BME280;5200;43.236;27.986;2024-01-06T05:55:32;99887.06;;;8.34;100.00
10310;BME280;5200;43.236;27.986;2024-01-06T05:57:59;99874.56;;;8.37;100.00
10310;BME280;5200;43.236;27.986;2024-01-06T06:00:26;99871.78;;;8.39;100.00
10310;BME280;5200;43.236;27.986;2024-01-06T06:02:53;99863.03;;;8.40;100.00
10310;BME280;5200;43.236;27.986;2024-01-06T06:05:21;99863.22;;;8.37;100.00
10310;BME280;5200;43.236;27.986;2024-01-06T06:07:48;99862.88;;;8.41;100.00
10310;BME280;5200;43.236;27.986;2024-01-06T06:10:15;99884.94;;;8.60;100.00
10310;BME280;5200;43.236;27.986;2024-01-06T06:12:44;99854.00;;;8.54;100.00
10310;BME280;5200;43.236;27.986;2024-01-06T06:15:11;99873.19;;;8.75;100.00
10310;BME280;5200;43.236;27.986;2024-01-06T06:17:39;99850.28;;;8.77;100.00
10310;BME280;5200;43.236;27.986;2024-01-06T06:20:06;99852.03;;;8.98;100.00
10310;BME280;5200;43.236;27.986;2024-01-06T06:22:34;99849.63;;;9.16;100.00
10310;BME280;5200;43.236;27.986;2024-01-06T06:25:01;99847.94;;;9.15;100.00
10310;BME280;5200;43.236;27.986;2024-01-06T06:27:29;99852.72;;;9.30;100.00
10310;BME280;5200;43.236;27.986;2024-01-06T06:29:55;99857.44;;;9.37;100.00
10310;BME280;5200;43.236;27.986;2024-01-06T06:32:22;99871.28;;;9.48;100.00
10310;BME280;5200;43.236;27.986;2024-01-06T06:34:51;99881.13;;;9.56;100.00
10310;BME280;5200;43.236;27.986;2024-01-06T06:37:18;99874.94;;;9.57;100.00
10310;BME280;5200;43.236;27.986;2024-01-06T06:39:49;99844.22;;;9.48;100.00
10310;BME280;5200;43.236;27.986;2024-01-06T06:42:15;99863.13;;;9.51;100.00
10310;BME280;5200;43.236;27.986;2024-01-06T06:44:42;99851.28;;;9.57;100.00
10310;BME280;5200;43.236;27.986;2024-01-06T06:47:09;99847.56;;;9.69;100.00
10310;BME280;5200;43.236;27.986;2024-01-06T06:49:36;99842.03;;;9.82;100.00
10310;BME280;5200;43.236;27.986;2024-01-06T06:52:03;99858.66;;;10.02;100.00
10310;BME280;5200;43.236;27.986;2024-01-06T06:54:32;99845.66;;;10.01;100.00
10310;BME280;5200;43.236;27.986;2024-01-06T06:57:00;99859.22;;;10.15;100.00
10310;BME280;5200;43.236;27.986;2024-01-06T06:59:28;99843.72;;;10.12;100.00
10310;BME280;5200;43.236;27.986;2024-01-06T07:01:55;99842.47;;;10.16;100.00
10310;BME280;5200;43.236;27.986;2024-01-06T07:04:22;99860.06;;;10.45;100.00
10310;BME280;5200;43.236;27.986;2024-01-06T07:06:51;99838.19;;;10.45;100.00
10310;BME280;5200;43.236;27.986;2024-01-06T07:09:18;99868.59;;;10.67;100.00
10310;BME280;5200;43.236;27.986;2024-01-06T07:11:48;99852.53;;;10.70;100.00
10310;BME280;5200;43.236;27.986;2024-01-06T07:14:16;99860.81;;;10.85;100.00
10310;BME280;5200;43.236;27.986;2024-01-06T07:16:43;99857.75;;;10.89;100.00
10310;BME280;5200;43.236;27.986;2024-01-06T07:19:10;99827.31;;;10.77;100.00
10310;BME280;5200;43.236;27.986;2024-01-06T07:21:37;99850.94;;;10.96;100.00
10310;BME280;5200;43.236;27.986;2024-01-06T07:24:04;99848.22;;;11.16;100.00
10310;BME280;5200;43.236;27.986;2024-01-06T07:26:31;99846.34;;;11.36;100.00
10310;BME280;5200;43.236;27.986;2024-01-06T07:28:58;99835.75;;;11.46;100.00
10310;BME280;5200;43.236;27.986;2024-01-06T07:31:26;99833.59;;;11.59;100.00
10310;BME280;5200;43.236;27.986;2024-01-06T07:33:53;99820.13;;;11.62;100.00
10310;BME280;5200;43.236;27.986;2024-01-06T07:36:20;99827.72;;;11.65;100.00
10310;BME280;5200;43.236;27.986;2024-01-06T07:38:47;99833.31;;;11.62;100.00
10310;BME280;5200;43.236;27.986;2024-01-06T07:41:14;99834.25;;;11.61;100.00
10310;BME280;5200;43.236;27.986;2024-01-06T07:43:41;99812.06;;;11.46;100.00
10310;BME280;5200;43.236;27.986;2024-01-06T07:46:08;99820.84;;;11.54;100.00
10310;BME280;5200;43.236;27.986;2024-01-06T07:48:36;99839.53;;;11.61;100.00
10310;BME280;5200;43.236;27.986;2024-01-06T07:51:03;99828.63;;;11.56;100.00
10310;BME280;5200;43.236;27.986;2024-01-06T07:53:30;99836.91;;;11.61;100.00
10310;BME280;5200;43.236;27.986;2024-01-06T07:55:57;99817.53;;;11.52;100.00
10310;BME280;5200;43.236;27.986;2024-01-06T07:58:24;99844.13;;;11.59;100.00
10310;BME280;5200;43.236;27.986;2024-01-06T08:00:51;99820.22;;;11.42;100.00
10310;BME280;5200;43.236;27.986;2024-01-06T08:03:18;99835.06;;;11.43;100.00
10310;BME280;5200;43.236;27.986;2024-01-06T08:05:46;99813.81;;;11.27;100.00
10310;BME280;5200;43.236;27.986;2024-01-06T08:08:13;99814.69;;;11.18;100.00
10310;BME280;5200;43.236;27.986;2024-01-06T08:10:42;99813.69;;;11.19;100.00
10310;BME280;5200;43.236;27.986;2024-01-06T08:13:09;99830.31;;;11.29;100.00
10310;BME280;5200;43.236;27.986;2024-01-06T08:15:35;99826.00;;;11.28;100.00
10310;BME280;5200;43.236;27.986;2024-01-06T08:18:03;99836.09;;;11.33;100.00
10310;BME280;5200;43.236;27.986;2024-01-06T08:20:30;99837.31;;;11.38;100.00
10310;BME280;5200;43.236;27.986;2024-01-06T08:22:58;99824.22;;;11.47;100.00
10310;BME280;5200;43.236;27.986;2024-01-06T08:25:25;99827.50;;;11.58;100.00
10310;BME280;5200;43.236;27.986;2024-01-06T08:27:52;99824.66;;;11.70;100.00
10310;BME280;5200;43.236;27.986;2024-01-06T08:30:19;99820.94;;;11.80;100.00
10310;BME280;5200;43.236;27.986;2024-01-06T08:32:45;99830.03;;;11.96;100.00
10310;BME280;5200;43.236;27.986;2024-01-06T08:35:12;99809.31;;;12.01;100.00
10310;BME280;5200;43.236;27.986;2024-01-06T08:37:42;99830.22;;;12.38;100.00
10310;BME280;5200;43.236;27.986;2024-01-06T08:40:11;99814.25;;;12.66;100.00
10310;BME280;5200;43.236;27.986;2024-01-06T08:42:38;99809.94;;;12.91;100.00
10310;BME280;5200;43.236;27.986;2024-01-06T08:45:05;99812.94;;;12.96;100.00
10310;BME280;5200;43.236;27.986;2024-01-06T08:47:32;99790.97;;;12.96;100.00
10310;BME280;5200;43.236;27.986;2024-01-06T08:49:59;99817.16;;;13.15;100.00
10310;BME280;5200;43.236;27.986;2024-01-06T08:52:25;99809.41;;;13.22;100.00
10310;BME280;5200;43.236;27.986;2024-01-06T08:54:52;99800.78;;;13.11;100.00
10310;BME280;5200;43.236;27.986;2024-01-06T08:57:21;99808.03;;;13.09;100.00
10310;BME280;5200;43.236;27.986;2024-01-06T08:59:47;99798.66;;;12.81;100.00
10310;BME280;5200;43.236;27.986;2024-01-06T09:02:14;99775.06;;;12.53;100.00
10310;BME280;5200;43.236;27.986;2024-01-06T09:04:41;99795.03;;;12.56;100.00
10310;BME280;5200;43.236;27.986;2024-01-06T09:07:08;99785.72;;;12.43;100.00
10310;BME280;5200;43.236;27.986;2024-01-06T09:09:36;99771.69;;;12.35;100.00
10310;BME280;5200;43.236;27.986;2024-01-06T09:12:03;99772.66;;;12.34;100.00
10310;BME280;5200;43.236;27.986;2024-01-06T09:14:31;99765.03;;;12.31;100.00
10310;BME280;5200;43.236;27.986;2024-01-06T09:16:58;99771.72;;;12.43;100.00
10310;BME280;5200;43.236;27.986;2024-01-06T09:19:25;99771.13;;;12.57;100.00
10310;BME280;5200;43.236;27.986;2024-01-06T09:21:53;99765.34;;;12.80;100.00
10310;BME280;5200;43.236;27.986;2024-01-06T09:24:20;99756.88;;;13.10;100.00
10310;BME280;5200;43.236;27.986;2024-01-06T09:26:47;99743.03;;;13.25;100.00
10310;BME280;5200;43.236;27.986;2024-01-06T09:29:15;99753.84;;;13.31;100.00
10310;BME280;5200;43.236;27.986;2024-01-06T09:31:43;99730.47;;;13.10;100.00
10310;BME280;5200;43.236;27.986;2024-01-06T09:34:10;99740.22;;;13.10;100.00
10310;BME280;5200;43.236;27.986;2024-01-06T09:36:37;99744.63;;;13.09;100.00
10310;BME280;5200;43.236;27.986;2024-01-06T09:39:04;99732.56;;;12.99;100.00
10310;BME280;5200;43.236;27.986;2024-01-06T09:41:33;99713.84;;;12.76;100.00
10310;BME280;5200;43.236;27.986;2024-01-06T09:44:00;99705.72;;;12.69;100.00
10310;BME280;5200;43.236;27.986;2024-01-06T09:46:28;99725.38;;;12.75;100.00
10310;BME280;5200;43.236;27.986;2024-01-06T09:48:57;99720.41;;;12.72;100.00
10310;BME280;5200;43.236;27.986;2024-01-06T09:51:25;99712.97;;;12.67;100.00
10310;BME280;5200;43.236;27.986;2024-01-06T09:53:56;99714.31;;;12.79;100.00
10310;BME280;5200;43.236;27.986;2024-01-06T09:56:24;99689.31;;;12.92;100.00
10310;BME280;5200;43.236;27.986;2024-01-06T09:58:52;99673.47;;;12.92;100.00
10310;BME280;5200;43.236;27.986;2024-01-06T10:01:19;99678.28;;;13.04;100.00
10310;BME280;5200;43.236;27.986;2024-01-06T10:03:46;99657.94;;;12.88;100.00
10310;BME280;5200;43.236;27.986;2024-01-06T10:06:15;99681.25;;;13.09;100.00
10310;BME280;5200;43.236;27.986;2024-01-06T10:08:42;99678.97;;;13.15;100.00
10310;BME280;5200;43.236;27.986;2024-01-06T10:11:09;99669.03;;;13.17;100.00
10310;BME280;5200;43.236;27.986;2024-01-06T10:13:36;99671.56;;;13.26;100.00
10310;BME280;5200;43.236;27.986;2024-01-06T10:16:04;99671.44;;;13.36;100.00
10310;BME280;5200;43.236;27.986;2024-01-06T10:18:31;99642.53;;;13.35;100.00
10310;BME280;5200;43.236;27.986;2024-01-06T10:20:58;99667.97;;;13.44;100.00
10310;BME280;5200;43.236;27.986;2024-01-06T10:23:27;99672.59;;;13.42;100.00
10310;BME280;5200;43.236;27.986;2024-01-06T10:25:55;99669.13;;;13.41;100.00
10310;BME280;5200;43.236;27.986;2024-01-06T10:28:23;99646.66;;;13.37;100.00
10310;BME280;5200;43.236;27.986;2024-01-06T10:30:52;99645.84;;;13.37;100.00
10310;BME280;5200;43.236;27.986;2024-01-06T10:33:19;99647.31;;;13.64;100.00
10310;BME280;5200;43.236;27.986;2024-01-06T10:35:46;99646.81;;;13.68;100.00
10310;BME280;5200;43.236;27.986;2024-01-06T10:38:14;99637.41;;;13.74;100.00
10310;BME280;5200;43.236;27.986;2024-01-06T10:40:56;99629.28;;;13.75;100.00
10310;BME280;5200;43.236;27.986;2024-01-06T10:43:25;99620.38;;;13.68;100.00
10310;BME280;5200;43.236;27.986;2024-01-06T10:45:53;99596.09;;;13.40;100.00
10310;BME280;5200;43.236;27.986;2024-01-06T10:48:24;99593.97;;;13.27;100.00
10310;BME280;5200;43.236;27.986;2024-01-06T10:50:51;99587.31;;;13.07;100.00
10310;BME280;5200;43.236;27.986;2024-01-06T10:53:19;99582.31;;;12.71;100.00
10310;BME280;5200;43.236;27.986;2024-01-06T10:55:50;99605.56;;;12.67;100.00
10310;BME280;5200;43.236;27.986;2024-01-06T10:58:18;99601.56;;;12.47;100.00
10310;BME280;5200;43.236;27.986;2024-01-06T11:00:46;99607.78;;;12.38;100.00
10310;BME280;5200;43.236;27.986;2024-01-06T11:03:14;99606.56;;;12.24;100.00
10310;BME280;5200;43.236;27.986;2024-01-06T11:05:41;99613.47;;;12.17;100.00
10310;BME280;5200;43.236;27.986;2024-01-06T11:08:09;99578.22;;;11.92;100.00
10310;BME280;5200;43.236;27.986;2024-01-06T11:10:37;99598.38;;;12.01;100.00
10310;BME280;5200;43.236;27.986;2024-01-06T11:13:08;99590.16;;;12.04;100.00
10310;BME280;5200;43.236;27.986;2024-01-06T11:15:41;99589.50;;;12.02;100.00
10310;BME280;5200;43.236;27.986;2024-01-06T11:18:08;99586.34;;;11.98;100.00
10310;BME280;5200;43.236;27.986;2024-01-06T11:20:35;99567.91;;;11.80;100.00
10310;BME280;5200;43.236;27.986;2024-01-06T11:23:18;99587.47;;;11.96;100.00
10310;BME280;5200;43.236;27.986;2024-01-06T11:25:46;99586.13;;;11.92;100.00
10310;BME280;5200;43.236;27.986;2024-01-06T11:28:16;99584.53;;;11.99;100.00
10310;BME280;5200;43.236;27.986;2024-01-06T11:30:43;99583.25;;;12.03;100.00
10310;BME280;5200;43.236;27.986;2024-01-06T11:33:10;99578.09;;;12.01;100.00
10310;BME280;5200;43.236;27.986;2024-01-06T11:35:37;99555.84;;;11.96;100.00
10310;BME280;5200;43.236;27.986;2024-01-06T11:38:07;99574.31;;;12.04;100.00
10310;BME280;5200;43.236;27.986;2024-01-06T11:40:36;99570.06;;;12.03;100.00
10310;BME280;5200;43.236;27.986;2024-01-06T11:43:04;99554.22;;;11.95;100.00
10310;BME280;5200;43.236;27.986;2024-01-06T11:45:34;99581.59;;;12.02;100.00
10310;BME280;5200;43.236;27.986;2024-01-06T11:48:03;99585.53;;;11.98;100.00
10310;BME280;5200;43.236;27.986;2024-01-06T11:50:31;99586.19;;;12.00;100.00
10310;BME280;5200;43.236;27.986;2024-01-06T11:52:59;99571.47;;;11.89;100.00
10310;BME280;5200;43.236;27.986;2024-01-06T11:55:26;99571.00;;;11.94;100.00
10310;BME280;5200;43.236;27.986;2024-01-06T11:57:54;99558.13;;;11.91;100.00
10310;BME280;5200;43.236;27.986;2024-01-06T12:00:23;99570.63;;;11.89;100.00
10310;BME280;5200;43.236;27.986;2024-01-06T12:02:55;99565.38;;;11.89;100.00
10310;BME280;5200;43.236;27.986;2024-01-06T12:05:22;99542.53;;;11.71;100.00
10310;BME280;5200;43.236;27.986;2024-01-06T12:07:53;99570.63;;;11.89;100.00
10310;BME280;5200;43.236;27.986;2024-01-06T12:10:22;99574.28;;;11.88;100.00
10310;BME280;5200;43.236;27.986;2024-01-06T12:12:56;99575.59;;;11.92;100.00
10310;BME280;5200;43.236;27.986;2024-01-06T12:15:24;99575.59;;;11.92;100.00
10310;BME280;5200;43.236;27.986;2024-01-06T12:17:52;99560.91;;;11.89;100.00
10310;BME280;5200;43.236;27.986;2024-01-06T12:20:21;99565.13;;;12.08;100.00
10310;BME280;5200;43.236;27.986;2024-01-06T12:22:48;99552.63;;;12.10;100.00
10310;BME280;5200;43.236;27.986;2024-01-06T12:25:15;99560.13;;;12.31;100.00
10310;BME280;5200;43.236;27.986;2024-01-06T12:27:42;99566.41;;;12.38;100.00
10310;BME280;5200;43.236;27.986;2024-01-06T12:30:13;99541.16;;;12.36;100.00
10310;BME280;5200;43.236;27.986;2024-01-06T12:32:42;99558.34;;;12.40;100.00
10310;BME280;5200;43.236;27.986;2024-01-06T12:35:11;99531.91;;;12.32;100.00
10310;BME280;5200;43.236;27.986;2024-01-06T12:37:38;99557.00;;;12.36;100.00
10310;BME280;5200;43.236;27.986;2024-01-06T12:40:06;99551.19;;;12.32;100.00
10310;BME280;5200;43.236;27.986;2024-01-06T12:42:34;99555.00;;;12.30;100.00
10310;BME280;5200;43.236;27.986;2024-01-06T12:45:01;99546.09;;;12.31;100.00
10310;BME280;5200;43.236;27.986;2024-01-06T12:47:28;99531.91;;;12.23;100.00
10310;BME280;5200;43.236;27.986;2024-01-06T12:49:55;99556.19;;;12.35;100.00
10310;BME280;5200;43.236;27.986;2024-01-06T12:52:24;99549.56;;;12.31;100.00
10310;BME280;5200;43.236;27.986;2024-01-06T12:54:50;99530.78;;;12.34;100.00
10310;BME280;5200;43.236;27.986;2024-01-06T12:57:18;99534.06;;;12.36;100.00